Time;durP1;ratioP1;P1;durP2;ratioP2;P2;SDS_P1;SDS_P2;PMS_P1;PMS_P2;Temp;Humidity;BMP_temperature;BMP_pressure;BME280_temperature;BME280_humidity;BME280_pressure;Samples;Min_cycle;Max_cycle;Signal;HPM_P1;HPM_P2
2021/07/25 00:01:27;;;;;;;10.07;5.03;;;;;;;;;;5054944;28;20489;-88
2021/07/25 00:03:52;;;;;;;10.18;4.88;;;;;;;;;;5054690;28;20035;-87
2021/07/25 00:06:17;;;;;;;11.05;4.78;;;;;;;;;;5055169;28;20345;-87
2021/07/25 00:08:42;;;;;;;14.70;4.78;;;;;;;;;;5055022;28;20417;-88
2021/07/25 00:11:08;;;;;;;10.00;4.65;;;;;;;;;;5054843;28;20021;-87
2021/07/25 00:13:37;;;;;;;9.98;4.78;;;;;;;;;;5054643;28;20017;-87
2021/07/25 00:16:03;;;;;;;17.13;5.22;;;;;;;;;;5054620;28;20198;-87
2021/07/25 00:18:28;;;;;;;12.30;5.00;;;;;;;;;;5054778;28;20484;-87
2021/07/25 00:20:53;;;;;;;11.00;4.90;;;;;;;;;;5054521;28;20488;-87
2021/07/25 00:23:20;;;;;;;14.25;5.32;;;;;;;;;;5054656;28;20027;-87
2021/07/25 00:25:46;;;;;;;10.60;5.05;;;;;;;;;;5054446;28;20105;-88
2021/07/25 00:28:16;;;;;;;9.00;5.13;;;;;;;;;;5055752;28;20021;-87
2021/07/25 00:30:42;;;;;;;11.60;5.07;;;;;;;;;;5054267;28;20025;-88
2021/07/25 00:33:07;;;;;;;10.23;5.07;;;;;;;;;;5053094;28;20487;-87
2021/07/25 00:35:33;;;;;;;8.90;5.15;;;;;;;;;;5054467;28;20021;-87
2021/07/25 00:37:58;;;;;;;8.15;4.90;;;;;;;;;;5055584;28;20025;-88
2021/07/25 00:40:23;;;;;;;8.70;5.13;;;;;;;;;;5054453;28;20025;-87
2021/07/25 00:42:49;;;;;;;11.90;5.25;;;;;;;;;;5068354;28;20538;-88
2021/07/25 00:45:14;;;;;;;13.93;6.05;;;;;;;;;;5054375;28;20029;-87
2021/07/25 00:47:39;;;;;;;10.82;5.15;;;;;;;;;;5053936;28;20479;-87
2021/07/25 00:50:06;;;;;;;9.57;6.05;;;;;;;;;;5053632;28;20054;-87
2021/07/25 00:52:32;;;;;;;12.90;6.25;;;;;;;;;;5054057;28;20036;-86
2021/07/25 00:55:01;;;;;;;14.35;6.25;;;;;;;;;;5058864;28;20025;-87
2021/07/25 00:57:26;;;;;;;14.60;6.32;;;;;;;;;;5057474;28;20024;-87
2021/07/25 00:59:51;;;;;;;9.75;5.90;;;;;;;;;;5062540;28;20016;-87
2021/07/25 01:02:17;;;;;;;11.55;6.25;;;;;;;;;;5059597;28;20109;-87
2021/07/25 01:05:08;;;;;;;11.68;6.60;;;;;;;;;;5054019;28;20407;-87
2021/07/25 01:07:52;;;;;;;11.00;6.40;;;;;;;;;;5050810;28;20483;-87
2021/07/25 01:10:19;;;;;;;10.85;6.90;;;;;;;;;;5073303;28;20025;-87
2021/07/25 01:12:47;;;;;;;12.85;7.68;;;;;;;;;;5074971;28;20042;-87
2021/07/25 01:15:17;;;;;;;12.75;6.70;;;;;;;;;;5064975;28;20032;-87
2021/07/25 01:17:42;;;;;;;12.93;6.72;;;;;;;;;;5065821;28;20016;-88
2021/07/25 01:20:09;;;;;;;17.45;7.10;;;;;;;;;;5067592;28;20078;-87
2021/07/25 01:22:44;;;;;;;10.77;5.90;;;;;;;;;;5063989;28;20016;-87
2021/07/25 01:25:11;;;;;;;12.95;7.82;;;;;;;;;;5060240;28;20025;-87
2021/07/25 01:27:55;;;;;;;20.33;8.45;;;;;;;;;;5067240;28;20518;-87
2021/07/25 01:30:22;;;;;;;13.02;7.22;;;;;;;;;;5067131;28;20530;-87
2021/07/25 01:32:49;;;;;;;20.10;8.85;;;;;;;;;;5067636;28;20035;-87
2021/07/25 01:35:15;;;;;;;15.45;7.93;;;;;;;;;;5064909;28;20016;-87
2021/07/25 01:37:41;;;;;;;18.23;8.75;;;;;;;;;;5070688;28;20021;-87
2021/07/25 01:40:13;;;;;;;14.70;7.82;;;;;;;;;;5062970;28;20162;-87
2021/07/25 01:42:39;;;;;;;16.73;8.32;;;;;;;;;;5070093;28;20021;-87
2021/07/25 01:45:04;;;;;;;14.90;7.75;;;;;;;;;;5052606;28;20098;-87
2021/07/25 01:47:30;;;;;;;16.08;8.98;;;;;;;;;;5068495;28;20521;-87
2021/07/25 01:49:55;;;;;;;15.85;8.30;;;;;;;;;;5072867;28;20107;-88
2021/07/25 01:52:20;;;;;;;14.65;8.05;;;;;;;;;;5060338;28;20021;-87
2021/07/25 01:54:45;;;;;;;15.93;8.07;;;;;;;;;;5071027;28;20479;-87
2021/07/25 01:57:11;;;;;;;20.20;8.77;;;;;;;;;;5072661;28;20024;-87
2021/07/25 01:59:36;;;;;;;16.10;9.40;;;;;;;;;;5070463;28;20460;-87
2021/07/25 02:02:01;;;;;;;16.85;9.18;;;;;;;;;;5061168;28;20526;-87
2021/07/25 02:04:26;;;;;;;13.45;8.88;;;;;;;;;;5059521;28;20063;-87
2021/07/25 02:06:51;;;;;;;18.42;8.55;;;;;;;;;;5071187;28;20055;-88
2021/07/25 02:09:17;;;;;;;16.45;8.27;;;;;;;;;;5058340;28;20049;-87
2021/07/25 02:11:42;;;;;;;17.90;8.18;;;;;;;;;;5070776;28;20028;-88
2021/07/25 02:14:08;;;;;;;13.68;8.05;;;;;;;;;;5072452;28;20054;-88
2021/07/25 02:16:34;;;;;;;14.70;7.80;;;;;;;;;;5057894;28;20060;-87
2021/07/25 02:18:59;;;;;;;15.32;8.10;;;;;;;;;;5065560;28;20025;-87
2021/07/25 02:21:24;;;;;;;15.05;7.55;;;;;;;;;;5065143;28;20028;-88
2021/07/25 02:23:49;;;;;;;21.42;8.15;;;;;;;;;;5058232;28;20016;-87
2021/07/25 02:26:15;;;;;;;11.93;7.10;;;;;;;;;;5061725;28;20021;-87
2021/07/25 02:28:40;;;;;;;15.38;8.18;;;;;;;;;;5052034;28;20028;-88
2021/07/25 02:31:05;;;;;;;16.80;7.95;;;;;;;;;;5052308;28;20357;-87
2021/07/25 02:33:30;;;;;;;13.55;7.03;;;;;;;;;;5052245;28;20024;-87
2021/07/25 02:35:56;;;;;;;16.55;6.95;;;;;;;;;;5072182;28;20025;-87
2021/07/25 02:38:21;;;;;;;12.88;6.45;;;;;;;;;;5073281;28;20028;-87
2021/07/25 02:40:47;;;;;;;12.93;6.30;;;;;;;;;;5058098;28;20028;-87
2021/07/25 02:43:12;;;;;;;16.30;6.80;;;;;;;;;;5072037;28;20127;-87
2021/07/25 02:45:37;;;;;;;15.50;6.70;;;;;;;;;;5057066;28;20328;-87
2021/07/25 02:48:02;;;;;;;13.48;7.00;;;;;;;;;;5059906;28;20032;-87
2021/07/25 02:50:28;;;;;;;10.13;6.53;;;;;;;;;;5071981;28;20044;-87
2021/07/25 02:52:53;;;;;;;17.80;7.97;;;;;;;;;;5057500;28;20021;-87
2021/07/25 02:55:18;;;;;;;13.35;6.93;;;;;;;;;;5071442;28;20028;-87
2021/07/25 02:57:43;;;;;;;18.98;7.65;;;;;;;;;;5057749;28;20025;-87
2021/07/25 03:00:09;;;;;;;18.27;7.55;;;;;;;;;;5071981;28;20028;-86
2021/07/25 03:02:36;;;;;;;16.75;7.60;;;;;;;;;;5060930;28;20056;-87
2021/07/25 03:05:02;;;;;;;15.13;7.65;;;;;;;;;;5053195;28;20375;-87
2021/07/25 03:07:27;;;;;;;14.40;7.03;;;;;;;;;;5056127;28;20108;-87
2021/07/25 03:09:52;;;;;;;13.15;7.93;;;;;;;;;;5051786;28;20380;-87
2021/07/25 03:12:17;;;;;;;21.50;7.00;;;;;;;;;;5054792;28;20513;-87
2021/07/25 03:14:43;;;;;;;11.10;6.43;;;;;;;;;;5057624;28;20029;-88
2021/07/25 03:17:08;;;;;;;26.95;8.75;;;;;;;;;;5054647;28;20024;-87
2021/07/25 03:19:33;;;;;;;18.45;7.80;;;;;;;;;;5057386;28;20092;-87
2021/07/25 03:21:58;;;;;;;19.30;8.32;;;;;;;;;;5053988;28;20464;-87
2021/07/25 03:24:23;;;;;;;12.65;7.15;;;;;;;;;;5057078;28;20059;-87
2021/07/25 03:26:49;;;;;;;19.88;8.05;;;;;;;;;;5052501;28;20350;-87
2021/07/25 03:29:14;;;;;;;14.13;7.93;;;;;;;;;;5058219;28;20573;-87
2021/07/25 03:31:39;;;;;;;14.85;7.18;;;;;;;;;;5051198;28;20059;-87
2021/07/25 03:34:04;;;;;;;11.68;7.43;;;;;;;;;;5053823;28;20484;-87
2021/07/25 03:36:30;;;;;;;14.35;6.70;;;;;;;;;;5059362;28;20032;-87
2021/07/25 03:38:55;;;;;;;16.48;7.32;;;;;;;;;;5051300;28;20476;-87
2021/07/25 03:41:20;;;;;;;17.88;7.03;;;;;;;;;;5051211;28;20082;-87
2021/07/25 03:43:45;;;;;;;15.30;7.47;;;;;;;;;;5050954;28;20043;-87
2021/07/25 03:46:11;;;;;;;18.00;6.75;;;;;;;;;;5051218;28;20101;-87
2021/07/25 03:48:36;;;;;;;12.35;6.70;;;;;;;;;;5050821;28;20380;-87
2021/07/25 03:51:04;;;;;;;13.75;7.20;;;;;;;;;;5045998;28;20021;-88
2021/07/25 03:53:29;;;;;;;19.63;7.20;;;;;;;;;;5050979;28;20036;-87
2021/07/25 03:55:54;;;;;;;14.32;6.80;;;;;;;;;;5058588;28;20021;-87
2021/07/25 03:58:20;;;;;;;13.30;7.28;;;;;;;;;;5057691;28;20452;-87
2021/07/25 04:00:45;;;;;;;24.92;8.23;;;;;;;;;;5056036;28;20024;-87
2021/07/25 04:03:10;;;;;;;11.35;6.80;;;;;;;;;;5060268;28;20032;-87
2021/07/25 04:05:35;;;;;;;12.10;6.85;;;;;;;;;;5055096;28;20048;-88
2021/07/25 04:08:10;;;;;;;10.60;6.43;;;;;;;;;;5056046;28;20028;-87
2021/07/25 04:10:42;;;;;;;15.82;6.97;;;;;;;;;;5059192;28;20362;-88
2021/07/25 04:13:08;;;;;;;13.15;6.68;;;;;;;;;;5057480;28;20082;-87
2021/07/25 04:15:36;;;;;;;13.40;7.28;;;;;;;;;;5055831;28;20013;-87
2021/07/25 04:18:01;;;;;;;16.73;6.70;;;;;;;;;;5057710;28;20036;-87
2021/07/25 04:20:27;;;;;;;15.50;6.95;;;;;;;;;;5060196;28;20104;-88
2021/07/25 04:22:52;;;;;;;12.02;6.80;;;;;;;;;;5058429;28;20486;-88
2021/07/25 04:25:17;;;;;;;13.95;7.10;;;;;;;;;;5055342;28;20040;-88
2021/07/25 04:27:42;;;;;;;16.10;6.63;;;;;;;;;;5054244;28;20415;-88
2021/07/25 04:30:08;;;;;;;17.52;6.47;;;;;;;;;;5053900;28;20480;-87
2021/07/25 04:32:33;;;;;;;12.38;6.22;;;;;;;;;;5056762;28;20148;-87
2021/07/25 04:34:58;;;;;;;15.35;5.93;;;;;;;;;;5059439;28;20032;-87
2021/07/25 04:37:28;;;;;;;15.43;6.22;;;;;;;;;;5064263;28;20027;-87
2021/07/25 04:39:54;;;;;;;13.70;6.32;;;;;;;;;;5060486;28;20021;-88
2021/07/25 04:42:21;;;;;;;17.20;7.05;;;;;;;;;;5053566;28;20027;-87
2021/07/25 04:44:52;;;;;;;21.90;7.10;;;;;;;;;;5059097;28;20017;-87
2021/07/25 04:47:19;;;;;;;17.38;6.68;;;;;;;;;;5053714;28;20028;-87
2021/07/25 04:50:07;;;;;;;23.90;7.78;;;;;;;;;;5058644;28;20013;-87
2021/07/25 04:52:39;;;;;;;10.68;6.28;;;;;;;;;;5062455;28;20032;-87
2021/07/25 04:55:06;;;;;;;18.20;6.72;;;;;;;;;;5083746;28;20032;-88
2021/07/25 04:57:33;;;;;;;14.48;6.80;;;;;;;;;;5053487;28;20040;-87
2021/07/25 04:59:59;;;;;;;11.80;6.78;;;;;;;;;;5053716;28;20032;-88
2021/07/25 05:02:25;;;;;;;14.35;7.18;;;;;;;;;;5060932;28;20017;-88
2021/07/25 05:04:51;;;;;;;13.88;7.18;;;;;;;;;;5059522;28;20420;-87
2021/07/25 05:07:16;;;;;;;15.00;6.68;;;;;;;;;;5056539;28;20025;-87
2021/07/25 05:09:42;;;;;;;11.60;6.47;;;;;;;;;;5053270;28;20151;-87
2021/07/25 05:12:16;;;;;;;18.02;7.10;;;;;;;;;;5048252;28;20025;-88
2021/07/25 05:14:47;;;;;;;16.13;6.45;;;;;;;;;;5059137;28;20021;-88
2021/07/25 05:17:22;;;;;;;15.63;5.78;;;;;;;;;;5052864;28;20036;-88
2021/07/25 05:19:47;;;;;;;9.57;6.05;;;;;;;;;;5058817;28;20449;-88
2021/07/25 05:22:18;;;;;;;13.05;6.32;;;;;;;;;;5057066;28;20025;-87
2021/07/25 05:24:45;;;;;;;14.27;6.32;;;;;;;;;;5058611;28;20029;-88
2021/07/25 05:27:18;;;;;;;13.55;6.78;;;;;;;;;;5059544;28;20021;-88
2021/07/25 05:29:44;;;;;;;12.75;6.47;;;;;;;;;;5058631;28;20024;-87
2021/07/25 05:32:10;;;;;;;20.13;7.28;;;;;;;;;;5053243;28;20025;-87
2021/07/25 05:34:35;;;;;;;9.02;5.80;;;;;;;;;;5053058;28;20087;-88
2021/07/25 05:37:00;;;;;;;16.58;6.40;;;;;;;;;;5053957;28;20025;-88
2021/07/25 05:39:25;;;;;;;15.30;5.50;;;;;;;;;;5053810;28;20021;-87
2021/07/25 05:41:50;;;;;;;10.05;5.28;;;;;;;;;;5060618;28;20056;-88
2021/07/25 05:44:16;;;;;;;12.60;4.95;;;;;;;;;;5057511;28;20104;-87
2021/07/25 05:46:42;;;;;;;11.13;5.85;;;;;;;;;;5053385;28;20119;-88
2021/07/25 05:49:07;;;;;;;12.35;5.43;;;;;;;;;;5074333;28;20499;-88
2021/07/25 05:51:32;;;;;;;11.82;5.60;;;;;;;;;;5060229;28;20020;-88
2021/07/25 05:53:57;;;;;;;11.52;5.70;;;;;;;;;;5055075;28;20453;-87
2021/07/25 05:56:23;;;;;;;10.68;5.10;;;;;;;;;;5063144;28;20459;-88
2021/07/25 05:58:48;;;;;;;13.15;5.05;;;;;;;;;;5053106;28;20039;-88
2021/07/25 06:01:13;;;;;;;12.40;5.25;;;;;;;;;;5053037;28;20480;-88
2021/07/25 06:03:38;;;;;;;10.63;5.45;;;;;;;;;;5054664;28;20052;-88
2021/07/25 06:06:06;;;;;;;11.35;5.22;;;;;;;;;;5052724;28;20071;-88
2021/07/25 06:08:31;;;;;;;12.00;5.60;;;;;;;;;;5052226;28;20107;-87
2021/07/25 06:10:56;;;;;;;11.23;5.38;;;;;;;;;;5052194;28;20108;-88
2021/07/25 06:13:22;;;;;;;9.77;5.15;;;;;;;;;;5059010;28;20027;-87
2021/07/25 06:15:48;;;;;;;10.75;4.97;;;;;;;;;;5055193;28;20376;-88
2021/07/25 06:18:13;;;;;;;8.25;5.18;;;;;;;;;;5049825;28;20409;-88
2021/07/25 06:20:38;;;;;;;10.15;4.95;;;;;;;;;;5063763;28;20123;-88
2021/07/25 06:23:03;;;;;;;9.48;5.25;;;;;;;;;;5056426;28;20503;-88
2021/07/25 06:25:33;;;;;;;11.23;5.18;;;;;;;;;;5062790;28;20017;-87
2021/07/25 06:27:59;;;;;;;9.27;4.85;;;;;;;;;;5057727;28;20025;-88
2021/07/25 06:30:25;;;;;;;13.88;5.78;;;;;;;;;;5056127;28;20088;-88
2021/07/25 06:32:54;;;;;;;9.95;5.32;;;;;;;;;;5057003;28;20103;-88
2021/07/25 06:35:19;;;;;;;10.40;5.75;;;;;;;;;;5051605;28;20056;-88
2021/07/25 06:37:45;;;;;;;10.25;4.57;;;;;;;;;;5053998;28;20067;-87
2021/07/25 06:40:10;;;;;;;7.93;5.00;;;;;;;;;;5051914;28;20036;-88
2021/07/25 06:42:35;;;;;;;15.27;5.70;;;;;;;;;;5092820;28;20032;-87
2021/07/25 06:45:00;;;;;;;10.63;5.05;;;;;;;;;;5085183;28;20106;-88
2021/07/25 06:47:26;;;;;;;13.50;5.88;;;;;;;;;;5051417;28;20028;-88
2021/07/25 06:49:51;;;;;;;12.68;4.95;;;;;;;;;;5056339;28;20029;-87
2021/07/25 06:52:16;;;;;;;13.00;5.38;;;;;;;;;;5059703;28;20013;-88
2021/07/25 06:54:41;;;;;;;17.70;5.93;;;;;;;;;;5056908;28;20013;-88
2021/07/25 06:57:06;;;;;;;9.63;5.32;;;;;;;;;;5058857;28;20075;-88
2021/07/25 06:59:32;;;;;;;12.20;4.65;;;;;;;;;;5057046;28;20506;-88
2021/07/25 07:01:57;;;;;;;10.57;4.65;;;;;;;;;;5058535;28;20032;-88
2021/07/25 07:04:22;;;;;;;7.80;4.07;;;;;;;;;;5057457;28;20032;-88
2021/07/25 07:06:47;;;;;;;12.80;5.15;;;;;;;;;;5051331;28;20025;-88
2021/07/25 07:09:13;;;;;;;8.40;5.10;;;;;;;;;;5051603;28;20028;-88
2021/07/25 07:11:38;;;;;;;8.95;4.50;;;;;;;;;;5053647;28;20119;-88
2021/07/25 07:14:03;;;;;;;13.82;5.57;;;;;;;;;;5056789;28;20135;-88
2021/07/25 07:16:28;;;;;;;10.85;5.07;;;;;;;;;;5054016;28;20032;-87
2021/07/25 07:18:53;;;;;;;15.45;4.43;;;;;;;;;;5051395;28;20033;-88
2021/07/25 07:21:19;;;;;;;6.90;4.13;;;;;;;;;;5063564;28;20020;-88
2021/07/25 07:23:44;;;;;;;13.98;5.32;;;;;;;;;;5056531;28;20488;-91
2021/07/25 07:26:09;;;;;;;13.20;4.70;;;;;;;;;;5051379;28;20048;-91
2021/07/25 07:28:34;;;;;;;7.80;4.03;;;;;;;;;;5051495;28;20029;-88
2021/07/25 07:31:00;;;;;;;13.18;4.55;;;;;;;;;;5059104;28;20021;-88
2021/07/25 07:33:27;;;;;;;8.00;3.83;;;;;;;;;;5054905;28;20021;-87
2021/07/25 07:35:52;;;;;;;12.15;4.55;;;;;;;;;;5057251;28;20213;-88
2021/07/25 07:38:19;;;;;;;12.15;3.67;;;;;;;;;;5059607;28;20499;-88
2021/07/25 07:40:44;;;;;;;9.85;4.05;;;;;;;;;;5065347;28;20116;-88
2021/07/25 07:43:11;;;;;;;13.50;4.47;;;;;;;;;;5055459;28;20056;-88
2021/07/25 07:45:37;;;;;;;6.22;3.67;;;;;;;;;;5068000;28;20033;-88
2021/07/25 07:48:03;;;;;;;6.38;3.78;;;;;;;;;;5055262;28;20025;-88
2021/07/25 07:50:28;;;;;;;8.77;3.40;;;;;;;;;;5068196;28;20028;-87
2021/07/25 07:52:53;;;;;;;7.88;3.10;;;;;;;;;;5057214;28;20021;-88
2021/07/25 07:55:19;;;;;;;8.68;3.70;;;;;;;;;;5055047;28;20021;-88
2021/07/25 07:57:44;;;;;;;9.02;3.78;;;;;;;;;;5064931;28;20415;-88
2021/07/25 08:00:10;;;;;;;12.27;3.83;;;;;;;;;;5059368;28;20379;-88
2021/07/25 08:02:35;;;;;;;8.43;3.35;;;;;;;;;;5066340;28;20029;-87
2021/07/25 08:05:02;;;;;;;8.73;3.97;;;;;;;;;;5054885;28;20079;-88
2021/07/25 08:07:27;;;;;;;7.20;3.00;;;;;;;;;;5064458;28;20043;-88
2021/07/25 08:09:52;;;;;;;8.10;3.60;;;;;;;;;;5058646;28;20029;-88
2021/07/25 08:12:17;;;;;;;10.45;3.95;;;;;;;;;;5054490;28;20021;-88
2021/07/25 08:14:42;;;;;;;8.70;3.75;;;;;;;;;;5068357;28;20028;-88
2021/07/25 08:17:09;;;;;;;7.10;4.05;;;;;;;;;;5063057;28;20132;-87
2021/07/25 08:19:34;;;;;;;12.20;4.30;;;;;;;;;;5066054;28;20028;-88
2021/07/25 08:21:59;;;;;;;8.05;3.17;;;;;;;;;;5059924;28;20024;-88
2021/07/25 08:24:24;;;;;;;12.38;4.35;;;;;;;;;;5071435;28;20028;-88
2021/07/25 08:26:49;;;;;;;4.93;2.90;;;;;;;;;;5068491;28;20027;-88
2021/07/25 08:29:15;;;;;;;8.27;3.55;;;;;;;;;;5068426;28;20017;-88
2021/07/25 08:31:40;;;;;;;6.18;3.22;;;;;;;;;;5054079;28;20063;-88
2021/07/25 08:34:05;;;;;;;9.55;4.20;;;;;;;;;;5054244;28;20507;-88
2021/07/25 08:36:30;;;;;;;7.88;3.83;;;;;;;;;;5065631;28;20491;-88
2021/07/25 08:38:56;;;;;;;7.00;3.30;;;;;;;;;;5059937;28;20472;-88
2021/07/25 08:41:24;;;;;;;7.03;2.92;;;;;;;;;;5065012;28;20025;-88
2021/07/25 08:43:52;;;;;;;7.55;3.53;;;;;;;;;;5063115;28;20104;-88
2021/07/25 08:46:18;;;;;;;7.68;3.10;;;;;;;;;;5065412;28;20033;-88
2021/07/25 08:48:52;;;;;;;7.82;3.90;;;;;;;;;;5055629;28;20028;-88
2021/07/25 08:51:21;;;;;;;7.47;3.22;;;;;;;;;;5082290;28;20048;-88
2021/07/25 08:54:06;;;;;;;5.25;2.72;;;;;;;;;;5087447;28;20214;-89
2021/07/25 08:56:35;;;;;;;7.10;2.70;;;;;;;;;;5051141;28;20017;-88
2021/07/25 08:59:04;;;;;;;9.85;2.38;;;;;;;;;;5054752;28;20091;-88
2021/07/25 09:01:33;;;;;;;8.32;2.75;;;;;;;;;;5056448;28;20033;-88
2021/07/25 09:03:58;;;;;;;9.07;2.83;;;;;;;;;;5053390;28;20107;-88
2021/07/25 09:06:23;;;;;;;5.15;2.38;;;;;;;;;;5055916;28;20057;-88
2021/07/25 09:08:49;;;;;;;7.07;2.00;;;;;;;;;;5061067;28;20024;-88
2021/07/25 09:11:14;;;;;;;4.35;2.47;;;;;;;;;;5082516;28;20428;-88
2021/07/25 09:13:40;;;;;;;6.30;2.25;;;;;;;;;;5060441;28;20017;-88
2021/07/25 09:16:05;;;;;;;7.00;2.10;;;;;;;;;;5054069;28;20472;-88
2021/07/25 09:18:30;;;;;;;6.55;2.72;;;;;;;;;;5058764;28;20020;-88
2021/07/25 09:20:55;;;;;;;3.33;2.03;;;;;;;;;;5055517;28;20032;-88
2021/07/25 09:23:21;;;;;;;6.32;2.70;;;;;;;;;;5056448;28;20029;-89
2021/07/25 09:25:53;;;;;;;6.25;2.45;;;;;;;;;;5057918;28;20029;-88
2021/07/25 09:28:18;;;;;;;5.80;2.60;;;;;;;;;;5055582;28;20032;-88
2021/07/25 09:30:43;;;;;;;4.80;2.20;;;;;;;;;;5063462;28;20027;-88
2021/07/25 09:33:19;;;;;;;5.55;2.30;;;;;;;;;;5057932;28;20039;-87
2021/07/25 09:35:45;;;;;;;4.55;2.50;;;;;;;;;;5057769;28;20013;-88
2021/07/25 09:38:11;;;;;;;4.95;1.98;;;;;;;;;;5057871;28;20021;-88
2021/07/25 09:40:37;;;;;;;2.83;1.35;;;;;;;;;;5093569;28;20035;-89
2021/07/25 09:43:12;;;;;;;3.17;1.63;;;;;;;;;;5059462;28;20110;-88
2021/07/25 09:45:47;;;;;;;4.47;1.70;;;;;;;;;;5059397;28;20510;-88
2021/07/25 09:48:12;;;;;;;5.43;1.83;;;;;;;;;;5059758;28;20112;-88
2021/07/25 09:50:37;;;;;;;3.63;1.98;;;;;;;;;;5056914;28;20108;-88
2021/07/25 09:53:03;;;;;;;3.35;2.10;;;;;;;;;;5060150;28;20048;-88
2021/07/25 09:55:31;;;;;;;5.63;1.77;;;;;;;;;;5061994;28;20029;-88
2021/07/25 09:57:56;;;;;;;3.97;1.73;;;;;;;;;;5052300;28;20783;-88
2021/07/25 10:00:22;;;;;;;7.20;2.38;;;;;;;;;;5052590;28;20063;-88
2021/07/25 10:02:47;;;;;;;3.17;2.08;;;;;;;;;;5060358;28;20310;-88
2021/07/25 10:05:13;;;;;;;6.90;2.20;;;;;;;;;;5060187;28;20361;-88
2021/07/25 10:07:39;;;;;;;13.27;2.72;;;;;;;;;;5052382;28;20464;-88
2021/07/25 10:10:05;;;;;;;8.98;2.58;;;;;;;;;;5058648;28;20045;-88
2021/07/25 10:12:32;;;;;;;3.28;1.80;;;;;;;;;;5053534;28;20071;-88
2021/07/25 10:15:01;;;;;;;6.60;2.72;;;;;;;;;;5059564;28;20025;-88
2021/07/25 10:17:26;;;;;;;5.38;2.17;;;;;;;;;;5052295;28;20021;-89
2021/07/25 10:19:53;;;;;;;5.53;2.25;;;;;;;;;;5091632;28;20372;-87
2021/07/25 10:22:19;;;;;;;3.70;2.03;;;;;;;;;;5057453;28;20048;-88
2021/07/25 10:24:49;;;;;;;5.03;1.65;;;;;;;;;;5053180;28;20036;-88
2021/07/25 10:27:15;;;;;;;4.20;1.88;;;;;;;;;;5052447;28;20044;-88
2021/07/25 10:29:40;;;;;;;2.58;1.50;;;;;;;;;;5056476;28;20352;-88
2021/07/25 10:32:10;;;;;;;6.70;1.75;;;;;;;;;;5053381;28;20032;-88
2021/07/25 10:34:37;;;;;;;4.93;2.40;;;;;;;;;;5052144;28;20484;-87
2021/07/25 10:37:03;;;;;;;6.13;2.00;;;;;;;;;;5054882;28;20032;-89
2021/07/25 10:39:28;;;;;;;4.70;1.70;;;;;;;;;;5061149;28;20028;-87
2021/07/25 10:41:59;;;;;;;7.70;2.15;;;;;;;;;;5071949;28;20025;-87
2021/07/25 10:44:24;;;;;;;3.75;1.67;;;;;;;;;;5085662;28;20089;-88
2021/07/25 10:47:09;;;;;;;4.38;1.67;;;;;;;;;;5051267;28;20029;-88
2021/07/25 10:49:34;;;;;;;3.67;1.92;;;;;;;;;;5080080;28;20016;-88
2021/07/25 10:52:01;;;;;;;6.68;2.05;;;;;;;;;;5051612;28;20024;-88
2021/07/25 10:54:26;;;;;;;3.72;1.65;;;;;;;;;;5058984;28;20032;-88
2021/07/25 10:56:58;;;;;;;6.22;2.28;;;;;;;;;;5063037;28;20448;-88
2021/07/25 10:59:42;;;;;;;2.88;1.60;;;;;;;;;;5057475;28;20021;-88
2021/07/25 11:02:09;;;;;;;3.38;1.70;;;;;;;;;;5051739;28;20047;-88
2021/07/25 11:04:46;;;;;;;3.92;1.92;;;;;;;;;;5058598;28;20539;-87
2021/07/25 11:07:24;;;;;;;5.70;2.00;;;;;;;;;;5056559;28;20017;-88
2021/07/25 11:10:09;;;;;;;5.22;1.67;;;;;;;;;;5058089;28;20029;-88
2021/07/25 11:12:56;;;;;;;4.38;1.80;;;;;;;;;;5055328;28;20017;-88
2021/07/25 11:15:34;;;;;;;5.13;2.35;;;;;;;;;;5057388;28;20100;-89
2021/07/25 11:18:03;;;;;;;6.85;1.60;;;;;;;;;;5063894;28;20024;-88
2021/07/25 11:20:31;;;;;;;4.72;1.73;;;;;;;;;;5059982;28;20029;-88
2021/07/25 11:22:57;;;;;;;3.30;1.70;;;;;;;;;;5057777;28;20025;-88
2021/07/25 11:25:34;;;;;;;8.57;1.98;;;;;;;;;;5060878;28;20073;-88
2021/07/25 11:27:59;;;;;;;5.90;1.90;;;;;;;;;;5065128;28;20017;-89
2021/07/25 11:30:43;;;;;;;4.90;1.92;;;;;;;;;;5075035;28;20022;-88
2021/07/25 11:33:29;;;;;;;7.85;2.22;;;;;;;;;;5064602;28;20028;-88
2021/07/25 11:35:54;;;;;;;5.35;2.15;;;;;;;;;;5078439;28;20021;-89
2021/07/25 11:38:20;;;;;;;5.63;1.75;;;;;;;;;;5059200;28;20016;-89
2021/07/25 11:40:45;;;;;;;3.72;1.90;;;;;;;;;;5058152;28;20017;-89
2021/07/25 11:43:11;;;;;;;3.83;1.90;;;;;;;;;;5057815;28;20025;-88
2021/07/25 11:45:36;;;;;;;3.80;1.90;;;;;;;;;;5057567;28;20025;-89
2021/07/25 11:48:20;;;;;;;6.13;2.17;;;;;;;;;;5061457;28;20074;-89
2021/07/25 11:50:45;;;;;;;3.90;1.63;;;;;;;;;;5071897;28;20077;-90
2021/07/25 11:53:10;;;;;;;7.35;1.80;;;;;;;;;;5060500;28;20472;-89
2021/07/25 11:55:35;;;;;;;4.30;1.95;;;;;;;;;;5057632;28;20024;-88
2021/07/25 11:58:08;;;;;;;3.85;1.98;;;;;;;;;;5068445;28;20107;-89
2021/07/25 12:00:33;;;;;;;3.72;1.65;;;;;;;;;;5057487;28;20079;-85
2021/07/25 12:02:58;;;;;;;10.45;2.10;;;;;;;;;;5062253;28;21514;-85
2021/07/25 12:05:25;;;;;;;3.95;1.67;;;;;;;;;;5058009;28;20444;-85
2021/07/25 12:07:50;;;;;;;4.82;1.60;;;;;;;;;;5060437;28;20031;-86
2021/07/25 12:10:26;;;;;;;3.17;1.38;;;;;;;;;;5064454;28;20021;-87
2021/07/25 12:13:01;;;;;;;2.15;1.30;;;;;;;;;;5092492;28;20033;-85
2021/07/25 12:15:28;;;;;;;4.15;1.55;;;;;;;;;;5065112;28;20035;-87
2021/07/25 12:17:54;;;;;;;5.15;1.80;;;;;;;;;;5060009;28;20032;-85
2021/07/25 12:20:37;;;;;;;4.93;1.30;;;;;;;;;;5057590;28;20444;-85
2021/07/25 12:23:06;;;;;;;5.90;1.73;;;;;;;;;;5093981;28;20056;-85
2021/07/25 12:25:35;;;;;;;5.57;1.45;;;;;;;;;;5060149;28;20024;-85
2021/07/25 12:28:05;;;;;;;5.72;1.45;;;;;;;;;;5058220;28;20056;-87
2021/07/25 12:30:46;;;;;;;4.25;1.40;;;;;;;;;;5060075;28;20013;-87
2021/07/25 12:33:13;;;;;;;11.18;1.92;;;;;;;;;;5065132;28;20042;-87
2021/07/25 12:35:38;;;;;;;3.03;1.20;;;;;;;;;;5062896;28;20092;-88
2021/07/25 12:38:14;;;;;;;3.13;1.48;;;;;;;;;;5056877;28;20633;-88
2021/07/25 12:40:48;;;;;;;3.83;1.55;;;;;;;;;;5069975;28;20053;-87
2021/07/25 12:43:21;;;;;;;3.72;1.60;;;;;;;;;;5054843;28;20112;-87
2021/07/25 12:45:47;;;;;;;7.00;1.75;;;;;;;;;;5059728;28;20028;-87
2021/07/25 12:48:32;;;;;;;4.38;1.30;;;;;;;;;;5061133;28;20353;-87
2021/07/25 12:53:35;;;;;;;3.33;1.30;;;;;;;;;;5054883;28;20032;-87
2021/07/25 12:56:01;;;;;;;3.92;1.40;;;;;;;;;;5059677;28;20460;-87
2021/07/25 12:58:31;;;;;;;3.60;1.17;;;;;;;;;;5062995;28;20028;-87
2021/07/25 13:06:06;;;;;;;5.90;2.05;;;;;;;;;;5049409;28;20028;-87
2021/07/25 13:08:31;;;;;;;3.95;1.75;;;;;;;;;;5047172;28;20029;-87
2021/07/25 13:10:57;;;;;;;5.65;1.45;;;;;;;;;;5049755;28;20381;-87
2021/07/25 13:13:22;;;;;;;3.58;1.40;;;;;;;;;;5052258;28;20048;-86
2021/07/25 13:15:47;;;;;;;2.35;1.60;;;;;;;;;;5050990;28;20095;-86
2021/07/25 13:18:12;;;;;;;3.08;1.20;;;;;;;;;;5051353;28;20093;-86
2021/07/25 13:20:38;;;;;;;3.35;1.88;;;;;;;;;;5044677;28;20017;-87
2021/07/25 13:23:03;;;;;;;3.30;1.48;;;;;;;;;;5052135;28;20028;-87
2021/07/25 13:25:28;;;;;;;3.88;1.92;;;;;;;;;;5053241;28;20035;-87
2021/07/25 13:27:53;;;;;;;4.15;1.63;;;;;;;;;;5051286;28;20037;-86
2021/07/25 13:30:18;;;;;;;3.25;1.70;;;;;;;;;;5049369;28;20021;-87
2021/07/25 13:32:44;;;;;;;6.05;1.35;;;;;;;;;;5050013;28;20029;-87
2021/07/25 13:35:09;;;;;;;2.15;1.30;;;;;;;;;;5051230;28;20514;-87
2021/07/25 13:37:34;;;;;;;3.65;1.60;;;;;;;;;;5048763;28;20025;-86
2021/07/25 13:39:59;;;;;;;2.10;1.48;;;;;;;;;;5049218;28;20031;-86
2021/07/25 13:42:25;;;;;;;5.90;1.55;;;;;;;;;;5047810;28;20090;-87
2021/07/25 13:48:06;;;;;;;5.70;2.25;;;;;;;;;;5045446;28;20037;-86
2021/07/25 13:50:31;;;;;;;5.13;1.63;;;;;;;;;;5050472;28;20087;-86
2021/07/25 13:52:56;;;;;;;3.75;1.52;;;;;;;;;;5046880;28;20055;-87
2021/07/25 13:55:21;;;;;;;2.83;1.15;;;;;;;;;;5048673;28;20052;-87
2021/07/25 13:57:47;;;;;;;4.88;1.30;;;;;;;;;;5046048;28;20104;-86
2021/07/25 14:00:12;;;;;;;1.27;0.75;;;;;;;;;;5052264;28;20017;-86
2021/07/25 14:02:37;;;;;;;2.10;1.10;;;;;;;;;;5045722;28;20115;-86
2021/07/25 14:05:03;;;;;;;2.22;1.30;;;;;;;;;;5053465;28;20056;-86
2021/07/25 14:07:28;;;;;;;1.98;1.20;;;;;;;;;;5053303;28;20041;-86
2021/07/25 14:09:53;;;;;;;5.07;1.40;;;;;;;;;;5050171;28;20033;-87
2021/07/25 14:12:19;;;;;;;3.08;0.95;;;;;;;;;;5049599;28;20020;-86
2021/07/25 14:14:44;;;;;;;2.67;1.33;;;;;;;;;;5048896;28;20551;-86
2021/07/25 14:17:09;;;;;;;3.85;1.27;;;;;;;;;;5047280;28;20465;-86
2021/07/25 14:19:34;;;;;;;3.38;1.30;;;;;;;;;;5043347;28;20025;-86
2021/07/25 14:21:59;;;;;;;3.85;1.63;;;;;;;;;;5050064;28;20017;-85
2021/07/25 14:24:25;;;;;;;1.80;0.80;;;;;;;;;;5076822;28;20048;-86
2021/07/25 14:26:50;;;;;;;2.55;1.45;;;;;;;;;;5046145;28;20383;-86
2021/07/25 14:29:15;;;;;;;2.75;1.00;;;;;;;;;;5047651;28;20038;-86
2021/07/25 14:31:41;;;;;;;3.08;1.35;;;;;;;;;;5048098;28;20021;-85
2021/07/25 14:34:06;;;;;;;5.88;1.33;;;;;;;;;;5049707;28;21488;-85
2021/07/25 14:36:31;;;;;;;3.50;1.27;;;;;;;;;;5049293;28;20373;-86
2021/07/25 14:38:57;;;;;;;2.85;0.77;;;;;;;;;;5044940;28;20112;-86
2021/07/25 14:41:22;;;;;;;3.03;0.93;;;;;;;;;;5047174;28;20611;-86
2021/07/25 14:43:48;;;;;;;3.13;1.23;;;;;;;;;;5049495;28;20029;-86
2021/07/25 14:46:13;;;;;;;2.58;1.00;;;;;;;;;;5049412;28;20040;-86